createdAt,value
2019-06-26T00:01:56.320Z,12.73
2019-06-26T00:06:05.516Z,12.80
2019-06-26T00:10:15.562Z,12.97
2019-06-26T00:14:24.399Z,12.87
2019-06-26T00:18:33.187Z,12.60
2019-06-26T00:22:41.987Z,13.40
2019-06-26T00:26:50.926Z,12.17
2019-06-26T00:30:59.737Z,14.53
2019-06-26T00:35:08.788Z,12.60
2019-06-26T00:39:17.592Z,12.73
2019-06-26T00:43:41.476Z,12.80
2019-06-26T00:47:37.202Z,13.07
2019-06-26T00:51:45.995Z,13.70
2019-06-26T00:55:55.307Z,13.60
2019-06-26T01:00:09.433Z,13.20
2019-06-26T01:04:23.013Z,12.90
2019-06-26T01:08:31.838Z,13.60
2019-06-26T01:12:40.770Z,13.00
2019-06-26T01:16:49.810Z,13.57
2019-06-26T01:20:58.751Z,12.60
2019-06-26T01:25:07.698Z,12.80
2019-06-26T01:29:16.570Z,13.87
2019-06-26T01:33:25.362Z,13.20
2019-06-26T01:37:34.271Z,12.50
2019-06-26T01:41:43.054Z,13.40
2019-06-26T01:45:51.860Z,13.90
2019-06-26T01:50:00.635Z,12.57
2019-06-26T01:54:15.069Z,11.97
2019-06-26T01:58:24.238Z,13.23
2019-06-26T02:02:33.031Z,13.30
2019-06-26T02:06:41.820Z,13.30
2019-06-26T02:10:50.673Z,12.70
2019-06-26T02:14:59.522Z,12.80
2019-06-26T02:19:10.335Z,12.30
2019-06-26T02:23:19.110Z,13.30
2019-06-26T02:27:27.934Z,12.10
2019-06-26T02:31:36.786Z,12.70
2019-06-26T02:35:45.878Z,13.30
2019-06-26T02:39:54.740Z,13.30
2019-06-26T02:44:03.684Z,13.90
2019-06-26T02:48:13.069Z,12.47
2019-06-26T02:52:21.857Z,13.03
2019-06-26T02:56:30.769Z,13.43
2019-06-26T03:00:39.626Z,13.17
2019-06-26T03:04:48.592Z,12.53
2019-06-26T03:08:57.542Z,13.10
2019-06-26T03:13:06.470Z,13.80
2019-06-26T03:17:15.332Z,12.60
2019-06-26T03:21:24.098Z,13.40
2019-06-26T03:25:32.874Z,12.27
2019-06-26T03:29:41.642Z,13.17
2019-06-26T03:33:50.438Z,14.07
2019-06-26T03:37:59.277Z,12.63
2019-06-26T03:42:08.370Z,13.50
2019-06-26T03:46:17.167Z,14.10
2019-06-26T03:50:26.429Z,13.53
2019-06-26T03:54:35.279Z,13.07
2019-06-26T03:58:44.063Z,13.43
2019-06-26T04:02:52.831Z,12.10
2019-06-26T04:07:01.627Z,12.87
2019-06-26T04:11:10.478Z,13.30
2019-06-26T04:15:19.486Z,13.37
2019-06-26T04:19:28.330Z,13.00
2019-06-26T04:23:37.191Z,12.60
2019-06-26T04:27:46.207Z,13.50
2019-06-26T04:31:55.355Z,12.43
2019-06-26T04:36:04.342Z,12.30
2019-06-26T04:40:14.678Z,11.33
2019-06-26T04:44:23.530Z,12.33
2019-06-26T04:48:32.374Z,12.00
2019-06-26T04:52:41.167Z,10.97
2019-06-26T04:56:50.191Z,11.40
2019-06-26T05:00:58.980Z,11.77
2019-06-26T05:05:08.054Z,12.13
2019-06-26T05:09:17.240Z,11.90
2019-06-26T05:13:26.110Z,12.67
2019-06-26T05:17:35.225Z,12.43
2019-06-26T05:21:44.124Z,13.07
2019-06-26T05:25:52.969Z,12.40
2019-06-26T05:30:01.756Z,12.67
2019-06-26T05:34:11.167Z,13.33
2019-06-26T05:38:20.063Z,13.90
2019-06-26T05:42:28.911Z,14.13
2019-06-26T05:46:38.049Z,14.97
2019-06-26T05:50:46.899Z,15.70
2019-06-26T05:54:55.750Z,15.43
2019-06-26T05:59:04.683Z,15.80
2019-06-26T06:03:13.470Z,16.50
2019-06-26T06:07:22.325Z,16.03
2019-06-26T06:11:31.102Z,16.37
2019-06-26T06:15:40.947Z,16.87
2019-06-26T06:19:49.751Z,17.63
2019-06-26T06:23:58.534Z,17.37
2019-06-26T06:28:07.384Z,17.80
2019-06-26T06:32:16.151Z,16.27
2019-06-26T06:36:24.926Z,18.80
2019-06-26T06:40:33.691Z,18.67
2019-06-26T06:44:42.844Z,20.00
2019-06-26T06:48:51.617Z,20.53
2019-06-26T06:53:00.394Z,19.37
2019-06-26T06:57:09.226Z,17.70
2019-06-26T07:01:18.086Z,20.37
2019-06-26T07:05:26.939Z,19.57
2019-06-26T07:09:35.862Z,20.77
2019-06-26T07:13:44.702Z,22.13
2019-06-26T07:17:53.849Z,20.13
2019-06-26T07:22:02.612Z,22.00
2019-06-26T07:26:13.372Z,21.80
2019-06-26T07:30:23.198Z,19.70
2019-06-26T07:34:31.979Z,19.20
2019-06-26T07:38:40.833Z,17.87
2019-06-26T07:42:49.678Z,19.07
2019-06-26T07:46:58.471Z,17.93
2019-06-26T07:51:07.258Z,19.10
2019-06-26T07:55:16.393Z,18.50
2019-06-26T07:59:25.174Z,19.07
2019-06-26T08:03:33.966Z,19.17
2019-06-26T08:07:42.829Z,17.80
2019-06-26T08:11:51.618Z,16.87
2019-06-26T08:16:00.386Z,18.40
2019-06-26T08:20:09.811Z,16.23
2019-06-26T08:24:18.911Z,16.00
2019-06-26T08:28:27.700Z,16.97
2019-06-26T08:32:36.474Z,16.70
2019-06-26T08:36:45.267Z,14.17
2019-06-26T08:40:54.041Z,15.20
2019-06-26T08:45:02.835Z,15.33
2019-06-26T08:49:25.024Z,16.17
2019-06-26T08:53:22.198Z,16.10
2019-06-26T08:57:31.067Z,14.97
2019-06-26T09:01:39.877Z,14.53
2019-06-26T09:05:48.868Z,14.90
2019-06-26T09:09:57.827Z,13.63
2019-06-26T09:14:06.758Z,14.83
2019-06-26T09:18:15.620Z,13.67
2019-06-26T09:22:24.514Z,14.40
2019-06-26T09:26:33.592Z,14.10
2019-06-26T09:30:42.383Z,14.53
2019-06-26T09:34:51.158Z,15.43
2019-06-26T09:38:59.961Z,14.70
2019-06-26T09:43:08.840Z,15.83
2019-06-26T09:47:17.615Z,17.63
2019-06-26T09:51:26.462Z,15.60
2019-06-26T09:55:35.332Z,16.17
2019-06-26T09:59:44.106Z,15.80
2019-06-26T10:03:53.035Z,17.50
2019-06-26T10:08:01.814Z,15.17
2019-06-26T10:12:10.591Z,16.10
2019-06-26T10:16:19.450Z,17.00
2019-06-26T10:20:28.642Z,17.90
2019-06-26T10:24:37.438Z,17.53
2019-06-26T10:28:46.215Z,16.77
2019-06-26T10:32:55.004Z,17.67
2019-06-26T10:37:03.796Z,17.57
2019-06-26T10:41:12.616Z,17.67
2019-06-26T10:45:21.589Z,19.50
2019-06-26T10:49:30.519Z,19.30
2019-06-26T10:53:39.294Z,18.67
2019-06-26T10:57:48.150Z,19.67
2019-06-26T11:01:56.946Z,21.63
2019-06-26T11:06:05.735Z,19.80
2019-06-26T11:10:16.369Z,19.83
2019-06-26T11:14:25.155Z,20.27
2019-06-26T11:18:33.935Z,21.83
2019-06-26T11:22:42.728Z,22.07
2019-06-26T11:26:51.590Z,22.30
2019-06-26T11:31:00.514Z,22.30
2019-06-26T11:35:09.646Z,21.30
2019-06-26T11:39:18.488Z,22.03
2019-06-26T11:43:27.692Z,24.17
2019-06-26T11:47:36.653Z,21.17
2019-06-26T11:51:45.518Z,20.77
2019-06-26T11:55:54.457Z,20.50
2019-06-26T12:00:03.613Z,20.10
2019-06-26T12:04:12.726Z,19.60
2019-06-26T12:08:21.581Z,20.47
2019-06-26T12:12:30.448Z,20.50
2019-06-26T12:16:39.513Z,19.60
2019-06-26T12:20:48.327Z,19.20
2019-06-26T12:24:57.375Z,18.50
2019-06-26T12:29:07.674Z,18.77
2019-06-26T12:33:16.543Z,18.93
2019-06-26T12:37:37.096Z,20.20
2019-06-26T12:41:35.854Z,18.57
2019-06-26T12:45:44.743Z,19.97
2019-06-26T12:49:53.530Z,19.27
2019-06-26T12:54:02.339Z,18.53
2019-06-26T12:58:14.762Z,17.57
2019-06-26T13:02:21.870Z,18.10
2019-06-26T13:06:30.978Z,19.50
2019-06-26T13:10:49.781Z,18.80
2019-06-26T13:14:50.614Z,19.80
2019-06-26T13:18:59.460Z,19.90
2019-06-26T13:23:08.366Z,20.40
2019-06-26T13:27:17.247Z,19.93
2019-06-26T13:31:26.023Z,20.60
2019-06-26T13:35:34.885Z,20.90
2019-06-26T13:39:43.753Z,20.10
2019-06-26T13:43:52.773Z,21.37
2019-06-26T13:48:01.643Z,22.50
2019-06-26T13:52:10.502Z,21.37
2019-06-26T13:56:19.304Z,23.03
2019-06-26T14:00:28.114Z,23.83
2019-06-26T14:04:36.899Z,23.37
2019-06-26T14:08:45.694Z,24.80
2019-06-26T14:12:54.480Z,25.70
2019-06-26T14:17:03.330Z,23.43
2019-06-26T14:21:25.089Z,23.70
2019-06-26T14:25:22.999Z,26.23
2019-06-26T14:29:31.774Z,25.13
2019-06-26T14:33:40.575Z,24.13
2019-06-26T14:37:49.355Z,24.33
2019-06-26T14:41:58.221Z,22.30
2019-06-26T14:46:08.064Z,24.63
2019-06-26T14:50:17.111Z,22.57
2019-06-26T14:54:26.182Z,20.67
2019-06-26T14:58:36.370Z,22.07
2019-06-26T15:02:45.375Z,19.30
2019-06-26T15:06:54.175Z,21.60
2019-06-26T15:11:02.986Z,19.40
2019-06-26T15:15:12.033Z,19.77
2019-06-26T15:19:20.818Z,18.13
2019-06-26T15:23:29.607Z,17.07
2019-06-26T15:27:38.397Z,17.17
2019-06-26T15:31:47.190Z,17.27
2019-06-26T15:35:56.337Z,16.10
2019-06-26T15:40:06.150Z,15.07
2019-06-26T15:44:14.952Z,14.30
2019-06-26T15:48:23.726Z,14.90
2019-06-26T15:52:32.602Z,14.73
2019-06-26T15:56:41.386Z,14.23
2019-06-26T16:00:50.175Z,14.33
2019-06-26T16:04:58.962Z,13.73
2019-06-26T16:09:07.899Z,13.33
2019-06-26T16:13:16.785Z,13.03
2019-06-26T16:17:35.143Z,13.03
2019-06-26T16:21:44.007Z,13.90
2019-06-26T16:25:52.868Z,14.33
2019-06-26T16:30:01.735Z,15.77
2019-06-26T16:34:10.551Z,14.50
2019-06-26T16:38:19.359Z,15.50
2019-06-26T16:42:28.183Z,17.00
2019-06-26T16:46:37.271Z,16.47
2019-06-26T16:50:46.072Z,18.33
2019-06-26T16:54:55.129Z,17.00
2019-06-26T16:59:04.284Z,20.20
2019-06-26T17:03:13.489Z,20.00
2019-06-26T17:07:22.430Z,20.20
2019-06-26T17:11:31.234Z,20.50
2019-06-26T17:15:40.097Z,20.27
2019-06-26T17:19:48.939Z,19.00
2019-06-26T17:23:57.721Z,19.23
2019-06-26T17:28:06.597Z,18.10
2019-06-26T17:32:15.447Z,17.80
2019-06-26T17:36:24.336Z,19.00
2019-06-26T17:40:33.179Z,19.87
2019-06-26T17:44:41.965Z,19.00
2019-06-26T17:48:50.751Z,20.00
2019-06-26T17:52:59.530Z,18.77
2019-06-26T17:57:08.470Z,21.50
2019-06-26T18:01:17.263Z,18.97
2019-06-26T18:05:26.370Z,18.07
2019-06-26T18:09:35.186Z,20.17
2019-06-26T18:13:43.965Z,18.53
2019-06-26T18:17:52.762Z,19.13
2019-06-26T18:22:01.633Z,17.33
2019-06-26T18:26:13.672Z,16.97
2019-06-26T18:30:22.773Z,17.17
2019-06-26T18:34:31.705Z,16.80
2019-06-26T18:38:40.491Z,17.77
2019-06-26T18:42:49.355Z,17.40
2019-06-26T18:46:58.377Z,18.47
2019-06-26T18:51:07.588Z,17.10
2019-06-26T18:55:16.545Z,17.37
2019-06-26T18:59:25.333Z,18.07
2019-06-26T19:03:34.272Z,18.10
2019-06-26T19:07:43.310Z,19.40
2019-06-26T19:11:52.206Z,18.50
2019-06-26T19:16:04.340Z,17.60
2019-06-26T19:20:12.402Z,20.00
2019-06-26T19:24:21.263Z,18.30
2019-06-26T19:28:30.048Z,18.87
2019-06-26T19:32:38.969Z,20.10
2019-06-26T19:36:50.327Z,19.10
2019-06-26T19:40:58.422Z,19.33
2019-06-26T19:45:09.039Z,21.90
2019-06-26T19:49:17.900Z,18.87
2019-06-26T19:53:26.724Z,18.90
2019-06-26T19:57:35.507Z,19.53
2019-06-26T20:01:44.471Z,19.77
2019-06-26T20:05:53.545Z,18.73
2019-06-26T20:10:02.795Z,19.90
2019-06-26T20:14:11.639Z,19.50
2019-06-26T20:18:20.458Z,19.03
2019-06-26T20:22:29.251Z,20.93
2019-06-26T20:26:38.305Z,19.23
2019-06-26T20:30:47.099Z,19.80
2019-06-26T20:34:56.019Z,19.20
2019-06-26T20:39:05.750Z,18.83
2019-06-26T20:43:14.550Z,17.97
2019-06-26T20:47:23.398Z,19.90
2019-06-26T20:51:32.185Z,18.70
2019-06-26T20:55:40.986Z,19.63
2019-06-26T20:59:49.850Z,17.60
2019-06-26T21:03:58.718Z,17.70
2019-06-26T21:08:07.544Z,17.50
2019-06-26T21:12:16.588Z,17.40
2019-06-26T21:16:25.600Z,17.63
2019-06-26T21:20:34.386Z,17.73
2019-06-26T21:24:43.204Z,16.93
2019-06-26T21:28:51.987Z,16.93
2019-06-26T21:33:00.775Z,16.07
2019-06-26T21:37:09.567Z,17.20
2019-06-26T21:41:18.377Z,16.20
2019-06-26T21:45:27.182Z,17.93
2019-06-26T21:49:35.973Z,16.07
2019-06-26T21:53:44.758Z,15.50
2019-06-26T21:57:53.683Z,16.33
2019-06-26T22:02:02.708Z,16.33
2019-06-26T22:06:11.639Z,15.33
2019-06-26T22:10:21.058Z,15.60
2019-06-26T22:14:29.847Z,16.03
2019-06-26T22:18:38.938Z,14.60
2019-06-26T22:22:47.859Z,15.73
2019-06-26T22:26:56.959Z,15.97
2019-06-26T22:31:05.845Z,15.07
2019-06-26T22:35:14.875Z,15.20
2019-06-26T22:39:23.651Z,14.17
2019-06-26T22:43:32.430Z,14.70
2019-06-26T22:47:41.298Z,14.40
2019-06-26T22:51:50.348Z,13.73
2019-06-26T22:56:07.590Z,14.17
2019-06-26T23:00:13.840Z,13.43
2019-06-26T23:04:22.712Z,13.80
2019-06-26T23:08:31.529Z,13.50
2019-06-26T23:12:40.399Z,14.83
2019-06-26T23:16:49.182Z,13.63
2019-06-26T23:20:58.121Z,12.60
2019-06-26T23:25:07.238Z,13.30
2019-06-26T23:29:16.090Z,14.53
2019-06-26T23:33:24.963Z,13.00
2019-06-26T23:37:33.769Z,13.70
2019-06-26T23:41:42.567Z,12.63
2019-06-26T23:45:51.377Z,13.30
2019-06-26T23:50:00.170Z,12.67
2019-06-26T23:54:08.963Z,12.63
2019-06-26T23:58:17.766Z,13.03
